sensor_id;sensor_type;location;lat;lon;timestamp;temperature;humidity
4518;DHT22;2271;49.464;11.070;2022-09-09T00:00:24;17.80;99.90
4518;DHT22;2271;49.464;11.070;2022-09-09T00:02:57;17.80;99.90
4518;DHT22;2271;49.464;11.070;2022-09-09T00:06:03;17.80;99.90
4518;DHT22;2271;49.464;11.070;2022-09-09T00:08:41;17.80;99.90
4518;DHT22;2271;49.464;11.070;2022-09-09T00:11:10;17.80;99.90
4518;DHT22;2271;49.464;11.070;2022-09-09T00:13:44;17.90;99.90
4518;DHT22;2271;49.464;11.070;2022-09-09T00:21:32;17.90;99.90
4518;DHT22;2271;49.464;11.070;2022-09-09T00:23:58;17.80;99.90
4518;DHT22;2271;49.464;11.070;2022-09-09T00:26:42;17.60;99.90
4518;DHT22;2271;49.464;11.070;2022-09-09T00:31:44;17.60;99.90
4518;DHT22;2271;49.464;11.070;2022-09-09T00:34:13;17.50;99.90
4518;DHT22;2271;49.464;11.070;2022-09-09T00:36:41;17.50;99.90
4518;DHT22;2271;49.464;11.070;2022-09-09T00:39:25;17.40;99.90
4518;DHT22;2271;49.464;11.070;2022-09-09T00:47:37;17.40;99.90
4518;DHT22;2271;49.464;11.070;2022-09-09T00:57:52;17.60;99.90
4518;DHT22;2271;49.464;11.070;2022-09-09T01:00:27;17.60;99.90
4518;DHT22;2271;49.464;11.070;2022-09-09T01:11:24;17.40;99.90
4518;DHT22;2271;49.464;11.070;2022-09-09T01:13:58;17.30;99.90
4518;DHT22;2271;49.464;11.070;2022-09-09T01:16:29;17.30;99.90
4518;DHT22;2271;49.464;11.070;2022-09-09T01:18:56;17.40;99.90
4518;DHT22;2271;49.464;11.070;2022-09-09T01:26:40;17.20;99.90
4518;DHT22;2271;49.464;11.070;2022-09-09T01:29:09;17.30;99.90
4518;DHT22;2271;49.464;11.070;2022-09-09T01:34:19;17.10;99.90
4518;DHT22;2271;49.464;11.070;2022-09-09T01:39:25;17.10;99.90
4518;DHT22;2271;49.464;11.070;2022-09-09T01:41:52;17.10;99.90
4518;DHT22;2271;49.464;11.070;2022-09-09T01:44:19;17.10;99.90
4518;DHT22;2271;49.464;11.070;2022-09-09T01:46:45;17.10;99.90
4518;DHT22;2271;49.464;11.070;2022-09-09T01:49:11;17.20;99.90
4518;DHT22;2271;49.464;11.070;2022-09-09T01:51:38;17.20;99.90
4518;DHT22;2271;49.464;11.070;2022-09-09T01:54:06;17.20;99.90
4518;DHT22;2271;49.464;11.070;2022-09-09T02:02:26;17.20;99.90
4518;DHT22;2271;49.464;11.070;2022-09-09T02:05:11;17.10;99.90
4518;DHT22;2271;49.464;11.070;2022-09-09T02:07:48;17.10;99.90
4518;DHT22;2271;49.464;11.070;2022-09-09T02:10:20;17.10;99.90
4518;DHT22;2271;49.464;11.070;2022-09-09T02:12:51;17.20;99.90
4518;DHT22;2271;49.464;11.070;2022-09-09T02:15:26;17.10;99.90
4518;DHT22;2271;49.464;11.070;2022-09-09T02:17:56;17.10;99.90
4518;DHT22;2271;49.464;11.070;2022-09-09T02:20:23;17.20;99.90
4518;DHT22;2271;49.464;11.070;2022-09-09T02:22:50;17.20;99.90
4518;DHT22;2271;49.464;11.070;2022-09-09T02:25:21;17.20;99.90
4518;DHT22;2271;49.464;11.070;2022-09-09T02:27:49;17.20;99.90
4518;DHT22;2271;49.464;11.070;2022-09-09T02:30:16;17.20;99.90
4518;DHT22;2271;49.464;11.070;2022-09-09T02:32:43;17.30;99.90
4518;DHT22;2271;49.464;11.070;2022-09-09T02:35:14;17.30;99.90
4518;DHT22;2271;49.464;11.070;2022-09-09T02:37:42;17.30;99.90
4518;DHT22;2271;49.464;11.070;2022-09-09T02:40:10;17.30;99.90
4518;DHT22;2271;49.464;11.070;2022-09-09T02:42:40;17.40;99.90
4518;DHT22;2271;49.464;11.070;2022-09-09T02:45:09;17.30;99.90
4518;DHT22;2271;49.464;11.070;2022-09-09T02:47:49;17.20;99.90
4518;DHT22;2271;49.464;11.070;2022-09-09T02:50:29;17.10;99.90
4518;DHT22;2271;49.464;11.070;2022-09-09T02:55:39;17.20;99.90
4518;DHT22;2271;49.464;11.070;2022-09-09T03:00:35;17.10;99.90
4518;DHT22;2271;49.464;11.070;2022-09-09T03:03:05;17.20;99.90
4518;DHT22;2271;49.464;11.070;2022-09-09T03:05:31;17.30;99.90
4518;DHT22;2271;49.464;11.070;2022-09-09T03:07:57;17.30;99.90
4518;DHT22;2271;49.464;11.070;2022-09-09T03:10:23;17.20;99.90
4518;DHT22;2271;49.464;11.070;2022-09-09T03:12:48;17.10;99.90
4518;DHT22;2271;49.464;11.070;2022-09-09T03:15:15;17.20;99.90
4518;DHT22;2271;49.464;11.070;2022-09-09T03:17:41;17.10;99.90
4518;DHT22;2271;49.464;11.070;2022-09-09T03:20:08;17.10;99.90
4518;DHT22;2271;49.464;11.070;2022-09-09T03:22:34;17.10;99.90
4518;DHT22;2271;49.464;11.070;2022-09-09T03:25:00;17.10;99.90
4518;DHT22;2271;49.464;11.070;2022-09-09T03:27:26;17.20;99.90
4518;DHT22;2271;49.464;11.070;2022-09-09T03:29:51;17.20;99.90
4518;DHT22;2271;49.464;11.070;2022-09-09T03:32:18;17.30;99.90
4518;DHT22;2271;49.464;11.070;2022-09-09T03:34:44;17.30;99.90
4518;DHT22;2271;49.464;11.070;2022-09-09T03:37:10;17.20;99.90
4518;DHT22;2271;49.464;11.070;2022-09-09T03:39:35;17.30;99.90
4518;DHT22;2271;49.464;11.070;2022-09-09T03:42:01;17.20;99.90
4518;DHT22;2271;49.464;11.070;2022-09-09T03:44:31;17.20;99.90
4518;DHT22;2271;49.464;11.070;2022-09-09T03:46:56;17.10;99.90
4518;DHT22;2271;49.464;11.070;2022-09-09T03:49:22;17.10;99.90
4518;DHT22;2271;49.464;11.070;2022-09-09T03:51:49;17.00;99.90
4518;DHT22;2271;49.464;11.070;2022-09-09T03:54:15;17.00;99.90
4518;DHT22;2271;49.464;11.070;2022-09-09T03:56:40;17.20;99.90
4518;DHT22;2271;49.464;11.070;2022-09-09T03:59:07;17.20;99.90
4518;DHT22;2271;49.464;11.070;2022-09-09T04:01:34;17.20;99.90
4518;DHT22;2271;49.464;11.070;2022-09-09T04:04:00;17.20;99.90
4518;DHT22;2271;49.464;11.070;2022-09-09T04:06:27;17.20;99.90
4518;DHT22;2271;49.464;11.070;2022-09-09T04:08:53;17.20;99.90
4518;DHT22;2271;49.464;11.070;2022-09-09T04:11:19;17.20;99.90
4518;DHT22;2271;49.464;11.070;2022-09-09T04:13:45;17.20;99.90
4518;DHT22;2271;49.464;11.070;2022-09-09T04:16:11;17.20;99.90
4518;DHT22;2271;49.464;11.070;2022-09-09T04:18:41;17.20;99.90
4518;DHT22;2271;49.464;11.070;2022-09-09T04:21:08;17.20;99.90
4518;DHT22;2271;49.464;11.070;2022-09-09T04:23:34;17.20;99.90
4518;DHT22;2271;49.464;11.070;2022-09-09T04:26:00;17.10;99.90
4518;DHT22;2271;49.464;11.070;2022-09-09T04:28:30;17.00;99.90
4518;DHT22;2271;49.464;11.070;2022-09-09T04:30:56;17.00;99.90
4518;DHT22;2271;49.464;11.070;2022-09-09T04:33:24;17.00;99.90
4518;DHT22;2271;49.464;11.070;2022-09-09T04:35:53;17.00;99.90
4518;DHT22;2271;49.464;11.070;2022-09-09T04:38:19;17.00;99.90
4518;DHT22;2271;49.464;11.070;2022-09-09T04:40:50;17.00;99.90
4518;DHT22;2271;49.464;11.070;2022-09-09T04:43:17;17.00;99.90
4518;DHT22;2271;49.464;11.070;2022-09-09T04:45:46;17.10;99.90
4518;DHT22;2271;49.464;11.070;2022-09-09T04:48:12;17.10;99.90
4518;DHT22;2271;49.464;11.070;2022-09-09T04:50:37;17.00;99.90
4518;DHT22;2271;49.464;11.070;2022-09-09T04:53:04;17.00;99.90
4518;DHT22;2271;49.464;11.070;2022-09-09T04:55:31;16.80;99.90
4518;DHT22;2271;49.464;11.070;2022-09-09T04:57:57;16.80;99.90
4518;DHT22;2271;49.464;11.070;2022-09-09T05:00:23;16.80;99.90
4518;DHT22;2271;49.464;11.070;2022-09-09T05:02:49;16.80;99.90
4518;DHT22;2271;49.464;11.070;2022-09-09T05:05:15;16.70;99.90
4518;DHT22;2271;49.464;11.070;2022-09-09T05:07:42;16.80;99.90
4518;DHT22;2271;49.464;11.070;2022-09-09T05:10:09;16.90;99.90
4518;DHT22;2271;49.464;11.070;2022-09-09T05:12:35;17.00;99.90
4518;DHT22;2271;49.464;11.070;2022-09-09T05:15:01;17.10;99.90
4518;DHT22;2271;49.464;11.070;2022-09-09T05:17:27;17.00;99.90
4518;DHT22;2271;49.464;11.070;2022-09-09T05:19:53;17.00;99.90
4518;DHT22;2271;49.464;11.070;2022-09-09T05:22:19;17.10;99.90
4518;DHT22;2271;49.464;11.070;2022-09-09T05:24:45;17.10;99.90
4518;DHT22;2271;49.464;11.070;2022-09-09T05:27:11;17.20;99.90
4518;DHT22;2271;49.464;11.070;2022-09-09T05:29:38;17.30;99.90
4518;DHT22;2271;49.464;11.070;2022-09-09T05:32:04;17.30;99.90
4518;DHT22;2271;49.464;11.070;2022-09-09T05:34:30;17.30;99.90
4518;DHT22;2271;49.464;11.070;2022-09-09T05:36:55;17.40;99.90
4518;DHT22;2271;49.464;11.070;2022-09-09T05:39:21;17.40;99.90
4518;DHT22;2271;49.464;11.070;2022-09-09T05:41:46;17.40;99.90
4518;DHT22;2271;49.464;11.070;2022-09-09T05:44:12;17.30;99.90
4518;DHT22;2271;49.464;11.070;2022-09-09T05:46:39;17.20;99.90
4518;DHT22;2271;49.464;11.070;2022-09-09T05:49:05;17.20;99.90
4518;DHT22;2271;49.464;11.070;2022-09-09T05:51:32;17.20;99.90
4518;DHT22;2271;49.464;11.070;2022-09-09T05:53:57;17.30;99.90
4518;DHT22;2271;49.464;11.070;2022-09-09T05:56:27;17.30;99.90
4518;DHT22;2271;49.464;11.070;2022-09-09T05:58:54;17.40;99.90
4518;DHT22;2271;49.464;11.070;2022-09-09T06:01:22;17.40;99.90
4518;DHT22;2271;49.464;11.070;2022-09-09T06:03:49;17.40;99.90
4518;DHT22;2271;49.464;11.070;2022-09-09T06:06:17;17.50;99.90
4518;DHT22;2271;49.464;11.070;2022-09-09T06:08:46;17.50;99.90
4518;DHT22;2271;49.464;11.070;2022-09-09T06:11:23;17.50;99.90
4518;DHT22;2271;49.464;11.070;2022-09-09T06:13:49;17.50;99.90
4518;DHT22;2271;49.464;11.070;2022-09-09T06:16:19;17.50;99.90
4518;DHT22;2271;49.464;11.070;2022-09-09T06:18:45;17.70;99.90
4518;DHT22;2271;49.464;11.070;2022-09-09T06:21:19;17.80;99.90
4518;DHT22;2271;49.464;11.070;2022-09-09T06:23:46;17.90;99.90
4518;DHT22;2271;49.464;11.070;2022-09-09T06:28:38;18.00;99.90
4518;DHT22;2271;49.464;11.070;2022-09-09T06:31:06;18.10;99.90
4518;DHT22;2271;49.464;11.070;2022-09-09T06:33:39;18.30;99.90
4518;DHT22;2271;49.464;11.070;2022-09-09T06:36:10;18.30;99.90
4518;DHT22;2271;49.464;11.070;2022-09-09T06:38:36;18.10;99.90
4518;DHT22;2271;49.464;11.070;2022-09-09T06:41:02;18.00;99.90
4518;DHT22;2271;49.464;11.070;2022-09-09T06:43:28;18.10;99.90
4518;DHT22;2271;49.464;11.070;2022-09-09T06:46:17;19.10;99.90
4518;DHT22;2271;49.464;11.070;2022-09-09T06:48:45;19.80;99.90
4518;DHT22;2271;49.464;11.070;2022-09-09T06:53:42;19.30;99.90
4518;DHT22;2271;49.464;11.070;2022-09-09T06:58:45;20.00;99.90
4518;DHT22;2271;49.464;11.070;2022-09-09T07:01:21;22.10;99.90
4518;DHT22;2271;49.464;11.070;2022-09-09T07:03:50;21.50;99.90
4518;DHT22;2271;49.464;11.070;2022-09-09T07:06:18;21.50;99.90
4518;DHT22;2271;49.464;11.070;2022-09-09T07:08:56;21.50;99.90
4518;DHT22;2271;49.464;11.070;2022-09-09T07:11:25;21.00;99.90
4518;DHT22;2271;49.464;11.070;2022-09-09T07:13:52;20.60;99.90
4518;DHT22;2271;49.464;11.070;2022-09-09T07:16:19;20.20;99.90
4518;DHT22;2271;49.464;11.070;2022-09-09T07:18:46;19.90;99.90
4518;DHT22;2271;49.464;11.070;2022-09-09T07:21:13;19.70;99.90
4518;DHT22;2271;49.464;11.070;2022-09-09T07:23:39;19.60;99.90
4518;DHT22;2271;49.464;11.070;2022-09-09T07:26:12;19.40;99.90
4518;DHT22;2271;49.464;11.070;2022-09-09T07:28:39;19.10;99.90
4518;DHT22;2271;49.464;11.070;2022-09-09T07:31:06;18.90;99.90
4518;DHT22;2271;49.464;11.070;2022-09-09T07:33:33;18.70;99.90
4518;DHT22;2271;49.464;11.070;2022-09-09T07:36:12;18.60;99.90
4518;DHT22;2271;49.464;11.070;2022-09-09T07:38:45;18.60;99.90
4518;DHT22;2271;49.464;11.070;2022-09-09T07:41:15;18.60;99.90
4518;DHT22;2271;49.464;11.070;2022-09-09T07:43:43;19.00;99.90
4518;DHT22;2271;49.464;11.070;2022-09-09T07:46:10;19.10;99.90
4518;DHT22;2271;49.464;11.070;2022-09-09T07:48:38;19.10;99.90
4518;DHT22;2271;49.464;11.070;2022-09-09T07:51:09;19.10;99.90
4518;DHT22;2271;49.464;11.070;2022-09-09T07:53:40;19.20;99.90
4518;DHT22;2271;49.464;11.070;2022-09-09T07:56:11;19.60;99.90
4518;DHT22;2271;49.464;11.070;2022-09-09T07:58:38;20.00;99.90
4518;DHT22;2271;49.464;11.070;2022-09-09T08:01:13;20.60;99.90
4518;DHT22;2271;49.464;11.070;2022-09-09T08:03:39;20.90;99.90
4518;DHT22;2271;49.464;11.070;2022-09-09T08:06:07;21.40;99.90
4518;DHT22;2271;49.464;11.070;2022-09-09T08:08:34;21.90;99.90
4518;DHT22;2271;49.464;11.070;2022-09-09T08:11:11;22.40;99.90
4518;DHT22;2271;49.464;11.070;2022-09-09T08:13:38;22.80;99.90
4518;DHT22;2271;49.464;11.070;2022-09-09T08:16:16;22.50;99.90
4518;DHT22;2271;49.464;11.070;2022-09-09T08:18:42;22.60;99.90
4518;DHT22;2271;49.464;11.070;2022-09-09T08:21:16;22.90;99.90
4518;DHT22;2271;49.464;11.070;2022-09-09T08:23:44;23.10;99.90
4518;DHT22;2271;49.464;11.070;2022-09-09T08:26:16;23.50;99.90
4518;DHT22;2271;49.464;11.070;2022-09-09T08:28:43;23.60;99.90
4518;DHT22;2271;49.464;11.070;2022-09-09T08:31:15;24.00;99.90
4518;DHT22;2271;49.464;11.070;2022-09-09T08:33:42;24.10;99.90
4518;DHT22;2271;49.464;11.070;2022-09-09T08:36:12;24.20;99.90
4518;DHT22;2271;49.464;11.070;2022-09-09T08:38:38;24.50;99.90
4518;DHT22;2271;49.464;11.070;2022-09-09T08:44:11;24.80;99.90
4518;DHT22;2271;49.464;11.070;2022-09-09T08:46:55;24.90;99.90
4518;DHT22;2271;49.464;11.070;2022-09-09T08:52:17;25.30;99.90
4518;DHT22;2271;49.464;11.070;2022-09-09T08:54:46;25.50;99.90
4518;DHT22;2271;49.464;11.070;2022-09-09T08:57:16;25.70;99.90
4518;DHT22;2271;49.464;11.070;2022-09-09T08:59:44;25.80;99.90
4518;DHT22;2271;49.464;11.070;2022-09-09T09:05:12;25.00;99.90
4518;DHT22;2271;49.464;11.070;2022-09-09T09:10:42;25.00;99.90
4518;DHT22;2271;49.464;11.070;2022-09-09T09:13:18;25.30;99.90
4518;DHT22;2271;49.464;11.070;2022-09-09T09:15:50;25.70;99.90
4518;DHT22;2271;49.464;11.070;2022-09-09T09:18:18;25.90;99.90
4518;DHT22;2271;49.464;11.070;2022-09-09T09:21:03;26.10;99.90
4518;DHT22;2271;49.464;11.070;2022-09-09T09:23:57;25.90;99.90
4518;DHT22;2271;49.464;11.070;2022-09-09T09:26:33;25.90;99.90
4518;DHT22;2271;49.464;11.070;2022-09-09T09:29:03;25.80;99.90
4518;DHT22;2271;49.464;11.070;2022-09-09T09:31:33;26.10;99.90
4518;DHT22;2271;49.464;11.070;2022-09-09T09:33:59;26.30;99.90
4518;DHT22;2271;49.464;11.070;2022-09-09T09:39:03;26.50;99.90
4518;DHT22;2271;49.464;11.070;2022-09-09T09:41:41;26.60;99.90
4518;DHT22;2271;49.464;11.070;2022-09-09T09:44:27;26.70;99.90
4518;DHT22;2271;49.464;11.070;2022-09-09T09:47:10;26.80;99.90
4518;DHT22;2271;49.464;11.070;2022-09-09T09:49:36;26.90;99.90
4518;DHT22;2271;49.464;11.070;2022-09-09T09:52:06;27.10;99.90
4518;DHT22;2271;49.464;11.070;2022-09-09T09:54:37;27.00;99.90
4518;DHT22;2271;49.464;11.070;2022-09-09T09:57:11;27.10;99.90
4518;DHT22;2271;49.464;11.070;2022-09-09T09:59:38;27.20;99.90
4518;DHT22;2271;49.464;11.070;2022-09-09T10:02:24;27.30;99.90
4518;DHT22;2271;49.464;11.070;2022-09-09T10:07:39;26.90;99.90
4518;DHT22;2271;49.464;11.070;2022-09-09T10:10:07;26.40;99.90
4518;DHT22;2271;49.464;11.070;2022-09-09T10:12:42;25.80;99.90
4518;DHT22;2271;49.464;11.070;2022-09-09T10:18:13;25.50;99.90
4518;DHT22;2271;49.464;11.070;2022-09-09T10:26:54;24.90;99.90
4518;DHT22;2271;49.464;11.070;2022-09-09T10:29:53;25.50;99.90
4518;DHT22;2271;49.464;11.070;2022-09-09T10:32:36;25.90;99.90
4518;DHT22;2271;49.464;11.070;2022-09-09T10:42:52;25.10;99.90
4518;DHT22;2271;49.464;11.070;2022-09-09T10:45:49;25.20;99.90
4518;DHT22;2271;49.464;11.070;2022-09-09T10:54:20;24.70;99.90
4518;DHT22;2271;49.464;11.070;2022-09-09T10:56:58;24.60;99.90
4518;DHT22;2271;49.464;11.070;2022-09-09T10:59:33;24.40;99.90
4518;DHT22;2271;49.464;11.070;2022-09-09T11:02:24;24.30;99.90
4518;DHT22;2271;49.464;11.070;2022-09-09T11:05:14;24.00;99.90
4518;DHT22;2271;49.464;11.070;2022-09-09T11:07:57;23.80;99.90
4518;DHT22;2271;49.464;11.070;2022-09-09T11:16:29;23.30;99.90
4518;DHT22;2271;49.464;11.070;2022-09-09T11:21:47;23.20;99.90
4518;DHT22;2271;49.464;11.070;2022-09-09T11:35:27;23.30;99.90
4518;DHT22;2271;49.464;11.070;2022-09-09T11:38:21;23.40;99.90
4518;DHT22;2271;49.464;11.070;2022-09-09T11:40:58;23.50;99.90
4518;DHT22;2271;49.464;11.070;2022-09-09T11:46:08;23.60;99.90
4518;DHT22;2271;49.464;11.070;2022-09-09T11:48:35;23.60;99.90
4518;DHT22;2271;49.464;11.070;2022-09-09T11:53:28;23.60;99.90
4518;DHT22;2271;49.464;11.070;2022-09-09T11:56:11;23.60;99.90
4518;DHT22;2271;49.464;11.070;2022-09-09T12:01:36;23.50;99.90
4518;DHT22;2271;49.464;11.070;2022-09-09T12:04:11;23.40;99.90
4518;DHT22;2271;49.464;11.070;2022-09-09T12:09:46;23.20;99.90
4518;DHT22;2271;49.464;11.070;2022-09-09T12:17:23;23.00;99.90
4518;DHT22;2271;49.464;11.070;2022-09-09T12:20:16;23.00;99.90
4518;DHT22;2271;49.464;11.070;2022-09-09T12:28:10;23.20;99.90
4518;DHT22;2271;49.464;11.070;2022-09-09T12:31:05;23.50;99.90
4518;DHT22;2271;49.464;11.070;2022-09-09T12:33:39;23.70;99.90
4518;DHT22;2271;49.464;11.070;2022-09-09T12:36:13;24.10;99.90
4518;DHT22;2271;49.464;11.070;2022-09-09T12:38:41;24.20;99.90
4518;DHT22;2271;49.464;11.070;2022-09-09T12:41:22;24.40;99.90
4518;DHT22;2271;49.464;11.070;2022-09-09T12:43:49;24.50;99.90
4518;DHT22;2271;49.464;11.070;2022-09-09T12:46:29;24.40;99.90
4518;DHT22;2271;49.464;11.070;2022-09-09T12:48:57;24.20;99.90
4518;DHT22;2271;49.464;11.070;2022-09-09T12:51:30;24.10;99.90
4518;DHT22;2271;49.464;11.070;2022-09-09T12:53:58;24.10;99.90
4518;DHT22;2271;49.464;11.070;2022-09-09T12:56:30;24.10;99.90
4518;DHT22;2271;49.464;11.070;2022-09-09T12:58:57;23.90;99.90
4518;DHT22;2271;49.464;11.070;2022-09-09T13:01:29;23.80;99.90
4518;DHT22;2271;49.464;11.070;2022-09-09T13:03:55;23.60;99.90
4518;DHT22;2271;49.464;11.070;2022-09-09T13:06:23;23.60;99.90
4518;DHT22;2271;49.464;11.070;2022-09-09T13:08:51;23.30;99.90
4518;DHT22;2271;49.464;11.070;2022-09-09T13:11:30;23.20;99.90
4518;DHT22;2271;49.464;11.070;2022-09-09T13:13:59;23.10;99.90
4518;DHT22;2271;49.464;11.070;2022-09-09T13:16:33;23.00;99.90
4518;DHT22;2271;49.464;11.070;2022-09-09T13:19:02;22.80;99.90
4518;DHT22;2271;49.464;11.070;2022-09-09T13:21:39;22.70;99.90
4518;DHT22;2271;49.464;11.070;2022-09-09T13:24:06;22.70;99.90
4518;DHT22;2271;49.464;11.070;2022-09-09T13:26:54;22.60;99.90
4518;DHT22;2271;49.464;11.070;2022-09-09T13:29:22;22.70;99.90
4518;DHT22;2271;49.464;11.070;2022-09-09T13:31:48;22.80;99.90
4518;DHT22;2271;49.464;11.070;2022-09-09T13:34:31;23.00;99.90
4518;DHT22;2271;49.464;11.070;2022-09-09T13:37:05;23.20;99.90
4518;DHT22;2271;49.464;11.070;2022-09-09T13:39:34;23.40;99.90
4518;DHT22;2271;49.464;11.070;2022-09-09T13:42:02;23.50;99.90
4518;DHT22;2271;49.464;11.070;2022-09-09T13:44:37;23.60;99.90
4518;DHT22;2271;49.464;11.070;2022-09-09T13:47:22;23.60;99.90
4518;DHT22;2271;49.464;11.070;2022-09-09T13:49:52;23.50;99.90
4518;DHT22;2271;49.464;11.070;2022-09-09T13:52:19;23.40;99.90
4518;DHT22;2271;49.464;11.070;2022-09-09T13:54:52;23.50;99.90
4518;DHT22;2271;49.464;11.070;2022-09-09T13:57:20;23.50;99.90
4518;DHT22;2271;49.464;11.070;2022-09-09T13:59:47;23.50;99.90
4518;DHT22;2271;49.464;11.070;2022-09-09T14:02:13;23.30;99.90
4518;DHT22;2271;49.464;11.070;2022-09-09T14:04:39;23.30;99.90
4518;DHT22;2271;49.464;11.070;2022-09-09T14:07:12;23.30;99.90
4518;DHT22;2271;49.464;11.070;2022-09-09T14:09:39;23.40;99.90
4518;DHT22;2271;49.464;11.070;2022-09-09T14:12:08;23.30;99.90
4518;DHT22;2271;49.464;11.070;2022-09-09T14:14:34;23.30;99.90
4518;DHT22;2271;49.464;11.070;2022-09-09T14:17:00;23.20;99.90
4518;DHT22;2271;49.464;11.070;2022-09-09T14:19:25;23.20;99.90
4518;DHT22;2271;49.464;11.070;2022-09-09T14:21:51;23.10;99.90
4518;DHT22;2271;49.464;11.070;2022-09-09T14:24:17;22.80;99.90
4518;DHT22;2271;49.464;11.070;2022-09-09T14:26:43;22.80;99.90
4518;DHT22;2271;49.464;11.070;2022-09-09T14:29:08;22.60;99.90
4518;DHT22;2271;49.464;11.070;2022-09-09T14:31:34;22.50;99.90
4518;DHT22;2271;49.464;11.070;2022-09-09T14:34:00;22.50;99.90
4518;DHT22;2271;49.464;11.070;2022-09-09T14:36:26;22.50;99.90
4518;DHT22;2271;49.464;11.070;2022-09-09T14:38:52;22.40;99.90
4518;DHT22;2271;49.464;11.070;2022-09-09T14:41:19;22.40;99.90
4518;DHT22;2271;49.464;11.070;2022-09-09T14:43:46;22.40;99.90
4518;DHT22;2271;49.464;11.070;2022-09-09T14:46:16;22.30;99.90
4518;DHT22;2271;49.464;11.070;2022-09-09T14:48:42;22.20;99.90
4518;DHT22;2271;49.464;11.070;2022-09-09T14:51:18;22.20;99.90
4518;DHT22;2271;49.464;11.070;2022-09-09T14:53:47;22.20;99.90
4518;DHT22;2271;49.464;11.070;2022-09-09T14:56:16;22.30;99.90
4518;DHT22;2271;49.464;11.070;2022-09-09T14:58:42;22.30;99.90
4518;DHT22;2271;49.464;11.070;2022-09-09T15:01:11;22.30;99.90
4518;DHT22;2271;49.464;11.070;2022-09-09T15:03:42;22.30;99.90
4518;DHT22;2271;49.464;11.070;2022-09-09T15:06:11;22.30;99.90
4518;DHT22;2271;49.464;11.070;2022-09-09T15:08:42;22.30;99.90
4518;DHT22;2271;49.464;11.070;2022-09-09T15:11:09;22.20;99.90
4518;DHT22;2271;49.464;11.070;2022-09-09T15:13:36;22.20;99.90
4518;DHT22;2271;49.464;11.070;2022-09-09T15:16:07;22.20;99.90
4518;DHT22;2271;49.464;11.070;2022-09-09T15:18:33;22.40;99.90
4518;DHT22;2271;49.464;11.070;2022-09-09T15:21:00;22.30;99.90
4518;DHT22;2271;49.464;11.070;2022-09-09T15:23:28;22.40;99.90
4518;DHT22;2271;49.464;11.070;2022-09-09T15:25:56;22.40;99.90
4518;DHT22;2271;49.464;11.070;2022-09-09T15:28:22;22.30;99.90
4518;DHT22;2271;49.464;11.070;2022-09-09T15:30:52;22.20;99.90
4518;DHT22;2271;49.464;11.070;2022-09-09T15:33:20;22.10;99.90
4518;DHT22;2271;49.464;11.070;2022-09-09T15:35:46;22.10;99.90
4518;DHT22;2271;49.464;11.070;2022-09-09T15:38:12;22.10;99.90
4518;DHT22;2271;49.464;11.070;2022-09-09T15:40:42;22.10;99.90
4518;DHT22;2271;49.464;11.070;2022-09-09T15:43:08;22.10;99.90
4518;DHT22;2271;49.464;11.070;2022-09-09T15:45:36;22.10;99.90
4518;DHT22;2271;49.464;11.070;2022-09-09T15:48:03;22.10;99.90
4518;DHT22;2271;49.464;11.070;2022-09-09T15:50:29;22.10;99.90
4518;DHT22;2271;49.464;11.070;2022-09-09T15:52:56;22.10;99.90
4518;DHT22;2271;49.464;11.070;2022-09-09T15:55:22;22.20;99.90
4518;DHT22;2271;49.464;11.070;2022-09-09T15:57:51;22.20;99.90
4518;DHT22;2271;49.464;11.070;2022-09-09T16:00:20;22.20;99.90
4518;DHT22;2271;49.464;11.070;2022-09-09T16:02:47;22.20;99.90
4518;DHT22;2271;49.464;11.070;2022-09-09T16:05:13;22.20;99.90
4518;DHT22;2271;49.464;11.070;2022-09-09T16:07:38;22.10;99.90
4518;DHT22;2271;49.464;11.070;2022-09-09T16:10:04;22.10;99.90
4518;DHT22;2271;49.464;11.070;2022-09-09T16:12:31;22.10;99.90
4518;DHT22;2271;49.464;11.070;2022-09-09T16:14:56;22.10;99.90
4518;DHT22;2271;49.464;11.070;2022-09-09T16:17:22;22.10;99.90
4518;DHT22;2271;49.464;11.070;2022-09-09T16:19:48;22.10;99.90
4518;DHT22;2271;49.464;11.070;2022-09-09T16:22:13;22.10;99.90
4518;DHT22;2271;49.464;11.070;2022-09-09T16:24:40;22.10;99.90
4518;DHT22;2271;49.464;11.070;2022-09-09T16:27:06;22.10;99.90
4518;DHT22;2271;49.464;11.070;2022-09-09T16:29:32;22.10;99.90
4518;DHT22;2271;49.464;11.070;2022-09-09T16:31:57;22.10;99.90
4518;DHT22;2271;49.464;11.070;2022-09-09T16:34:25;22.10;99.90
4518;DHT22;2271;49.464;11.070;2022-09-09T16:36:51;22.10;99.90
4518;DHT22;2271;49.464;11.070;2022-09-09T16:39:20;22.10;99.90
4518;DHT22;2271;49.464;11.070;2022-09-09T16:41:47;22.00;99.90
4518;DHT22;2271;49.464;11.070;2022-09-09T16:44:15;22.00;99.90
4518;DHT22;2271;49.464;11.070;2022-09-09T16:46:43;22.00;99.90
4518;DHT22;2271;49.464;11.070;2022-09-09T16:49:11;21.90;99.90
4518;DHT22;2271;49.464;11.070;2022-09-09T16:51:39;21.80;99.90
4518;DHT22;2271;49.464;11.070;2022-09-09T16:54:07;21.80;99.90
4518;DHT22;2271;49.464;11.070;2022-09-09T16:56:35;21.80;99.90
4518;DHT22;2271;49.464;11.070;2022-09-09T16:59:07;21.80;99.90
4518;DHT22;2271;49.464;11.070;2022-09-09T17:01:35;21.80;99.90
4518;DHT22;2271;49.464;11.070;2022-09-09T17:04:08;21.70;99.90
4518;DHT22;2271;49.464;11.070;2022-09-09T17:06:34;21.70;99.90
4518;DHT22;2271;49.464;11.070;2022-09-09T17:09:04;21.70;99.90
4518;DHT22;2271;49.464;11.070;2022-09-09T17:11:30;21.80;99.90
4518;DHT22;2271;49.464;11.070;2022-09-09T17:13:57;21.80;99.90
4518;DHT22;2271;49.464;11.070;2022-09-09T17:16:26;21.80;99.90
4518;DHT22;2271;49.464;11.070;2022-09-09T17:18:55;21.80;99.90
4518;DHT22;2271;49.464;11.070;2022-09-09T17:21:24;21.80;99.90
4518;DHT22;2271;49.464;11.070;2022-09-09T17:23:54;21.80;99.90
4518;DHT22;2271;49.464;11.070;2022-09-09T17:26:26;21.90;99.90
4518;DHT22;2271;49.464;11.070;2022-09-09T17:28:55;21.90;99.90
4518;DHT22;2271;49.464;11.070;2022-09-09T17:31:23;21.90;99.90
4518;DHT22;2271;49.464;11.070;2022-09-09T17:33:50;21.90;99.90
4518;DHT22;2271;49.464;11.070;2022-09-09T17:36:27;22.00;99.90
4518;DHT22;2271;49.464;11.070;2022-09-09T17:38:53;22.00;99.90
4518;DHT22;2271;49.464;11.070;2022-09-09T17:41:24;22.00;99.90
4518;DHT22;2271;49.464;11.070;2022-09-09T17:43:51;22.00;99.90
4518;DHT22;2271;49.464;11.070;2022-09-09T17:46:20;22.00;99.90
4518;DHT22;2271;49.464;11.070;2022-09-09T17:48:47;22.00;99.90
4518;DHT22;2271;49.464;11.070;2022-09-09T17:51:15;22.10;99.90
4518;DHT22;2271;49.464;11.070;2022-09-09T17:53:45;22.10;99.90
4518;DHT22;2271;49.464;11.070;2022-09-09T17:56:13;22.10;99.90
4518;DHT22;2271;49.464;11.070;2022-09-09T17:58:40;22.00;99.90
4518;DHT22;2271;49.464;11.070;2022-09-09T18:01:11;22.00;99.90
4518;DHT22;2271;49.464;11.070;2022-09-09T18:03:39;22.00;99.90
4518;DHT22;2271;49.464;11.070;2022-09-09T18:06:07;22.00;99.90
4518;DHT22;2271;49.464;11.070;2022-09-09T18:08:33;22.00;99.90
4518;DHT22;2271;49.464;11.070;2022-09-09T18:11:00;21.90;99.90
4518;DHT22;2271;49.464;11.070;2022-09-09T18:13:26;21.90;99.90
4518;DHT22;2271;49.464;11.070;2022-09-09T18:15:52;21.90;99.90
4518;DHT22;2271;49.464;11.070;2022-09-09T18:18:19;21.90;99.90
4518;DHT22;2271;49.464;11.070;2022-09-09T18:20:45;21.90;99.90